sensor_id;sensor_type;location;lat;lon;timestamp;P1;durP1;ratioP1;P2;durP2;ratioP2
79464;SDS011;68932;47.410;8.232;2023-04-24T00:00:41;1.80;;;0.60;;
79464;SDS011;68932;47.410;8.232;2023-04-24T00:03:08;0.80;;;0.60;;
79464;SDS011;68932;47.410;8.232;2023-04-24T00:05:35;0.50;;;0.40;;
79464;SDS011;68932;47.410;8.232;2023-04-24T00:08:02;0.80;;;0.60;;
79464;SDS011;68932;47.410;8.232;2023-04-24T00:10:29;0.60;;;0.40;;
79464;SDS011;68932;47.410;8.232;2023-04-24T00:12:56;1.20;;;0.60;;
79464;SDS011;68932;47.410;8.232;2023-04-24T00:15:23;0.70;;;0.50;;
79464;SDS011;68932;47.410;8.232;2023-04-24T00:17:50;0.60;;;0.30;;
79464;SDS011;68932;47.410;8.232;2023-04-24T00:20:17;0.70;;;0.60;;
79464;SDS011;68932;47.410;8.232;2023-04-24T00:22:44;0.80;;;0.60;;
79464;SDS011;68932;47.410;8.232;2023-04-24T00:25:12;0.60;;;0.50;;
79464;SDS011;68932;47.410;8.232;2023-04-24T00:27:38;1.40;;;0.50;;
79464;SDS011;68932;47.410;8.232;2023-04-24T00:30:07;0.80;;;0.60;;
79464;SDS011;68932;47.410;8.232;2023-04-24T00:32:35;1.10;;;0.70;;
79464;SDS011;68932;47.410;8.232;2023-04-24T00:35:02;0.60;;;0.50;;
79464;SDS011;68932;47.410;8.232;2023-04-24T00:37:30;1.40;;;0.70;;
79464;SDS011;68932;47.410;8.232;2023-04-24T00:39:57;0.70;;;0.50;;
79464;SDS011;68932;47.410;8.232;2023-04-24T00:42:24;1.20;;;0.30;;
79464;SDS011;68932;47.410;8.232;2023-04-24T00:44:51;0.60;;;0.50;;
79464;SDS011;68932;47.410;8.232;2023-04-24T00:47:18;0.50;;;0.30;;
79464;SDS011;68932;47.410;8.232;2023-04-24T00:49:45;1.90;;;0.60;;
79464;SDS011;68932;47.410;8.232;2023-04-24T00:52:12;0.60;;;0.50;;
79464;SDS011;68932;47.410;8.232;2023-04-24T00:54:39;0.90;;;0.50;;
79464;SDS011;68932;47.410;8.232;2023-04-24T00:57:06;0.60;;;0.60;;
79464;SDS011;68932;47.410;8.232;2023-04-24T00:59:33;0.90;;;0.50;;
79464;SDS011;68932;47.410;8.232;2023-04-24T01:02:01;0.90;;;0.80;;
79464;SDS011;68932;47.410;8.232;2023-04-24T01:04:28;1.50;;;0.60;;
79464;SDS011;68932;47.410;8.232;2023-04-24T01:06:55;0.50;;;0.30;;
79464;SDS011;68932;47.410;8.232;2023-04-24T01:09:23;0.80;;;0.40;;
79464;SDS011;68932;47.410;8.232;2023-04-24T01:11:50;0.50;;;0.40;;
79464;SDS011;68932;47.410;8.232;2023-04-24T01:14:17;0.50;;;0.50;;
79464;SDS011;68932;47.410;8.232;2023-04-24T01:16:45;0.70;;;0.60;;
79464;SDS011;68932;47.410;8.232;2023-04-24T01:19:12;0.90;;;0.50;;
79464;SDS011;68932;47.410;8.232;2023-04-24T01:21:42;0.80;;;0.60;;
79464;SDS011;68932;47.410;8.232;2023-04-24T01:24:12;0.80;;;0.50;;
79464;SDS011;68932;47.410;8.232;2023-04-24T01:26:39;0.70;;;0.50;;
79464;SDS011;68932;47.410;8.232;2023-04-24T01:29:06;0.60;;;0.50;;
79464;SDS011;68932;47.410;8.232;2023-04-24T01:31:34;0.60;;;0.50;;
79464;SDS011;68932;47.410;8.232;2023-04-24T01:34:02;1.20;;;0.60;;
79464;SDS011;68932;47.410;8.232;2023-04-24T01:36:29;0.60;;;0.30;;
79464;SDS011;68932;47.410;8.232;2023-04-24T01:38:57;0.70;;;0.50;;
79464;SDS011;68932;47.410;8.232;2023-04-24T01:41:24;0.70;;;0.60;;
79464;SDS011;68932;47.410;8.232;2023-04-24T01:43:51;0.60;;;0.60;;
79464;SDS011;68932;47.410;8.232;2023-04-24T01:46:19;0.70;;;0.40;;
79464;SDS011;68932;47.410;8.232;2023-04-24T01:48:46;1.40;;;0.50;;
79464;SDS011;68932;47.410;8.232;2023-04-24T01:51:14;0.60;;;0.40;;
79464;SDS011;68932;47.410;8.232;2023-04-24T01:53:41;0.60;;;0.40;;
79464;SDS011;68932;47.410;8.232;2023-04-24T01:56:08;1.10;;;0.90;;
79464;SDS011;68932;47.410;8.232;2023-04-24T01:58:35;0.50;;;0.30;;
79464;SDS011;68932;47.410;8.232;2023-04-24T02:01:02;0.70;;;0.40;;
79464;SDS011;68932;47.410;8.232;2023-04-24T02:03:32;0.90;;;0.70;;
79464;SDS011;68932;47.410;8.232;2023-04-24T02:05:58;0.40;;;0.30;;
79464;SDS011;68932;47.410;8.232;2023-04-24T02:08:26;1.00;;;0.80;;
79464;SDS011;68932;47.410;8.232;2023-04-24T02:10:53;0.50;;;0.40;;
79464;SDS011;68932;47.410;8.232;2023-04-24T02:13:20;0.50;;;0.50;;
79464;SDS011;68932;47.410;8.232;2023-04-24T02:15:46;1.00;;;0.50;;
79464;SDS011;68932;47.410;8.232;2023-04-24T02:18:13;0.60;;;0.60;;
79464;SDS011;68932;47.410;8.232;2023-04-24T02:20:40;0.80;;;0.50;;
79464;SDS011;68932;47.410;8.232;2023-04-24T02:23:07;1.00;;;0.40;;
79464;SDS011;68932;47.410;8.232;2023-04-24T02:25:34;0.60;;;0.50;;
79464;SDS011;68932;47.410;8.232;2023-04-24T02:28:01;0.60;;;0.50;;
79464;SDS011;68932;47.410;8.232;2023-04-24T02:30:28;0.70;;;0.30;;
79464;SDS011;68932;47.410;8.232;2023-04-24T02:32:55;0.60;;;0.50;;
79464;SDS011;68932;47.410;8.232;2023-04-24T02:35:22;0.80;;;0.50;;
79464;SDS011;68932;47.410;8.232;2023-04-24T02:37:49;1.10;;;0.50;;
79464;SDS011;68932;47.410;8.232;2023-04-24T02:40:16;1.60;;;0.40;;
79464;SDS011;68932;47.410;8.232;2023-04-24T02:42:44;0.90;;;0.60;;
79464;SDS011;68932;47.410;8.232;2023-04-24T02:45:11;0.70;;;0.70;;
79464;SDS011;68932;47.410;8.232;2023-04-24T02:47:38;0.60;;;0.60;;
79464;SDS011;68932;47.410;8.232;2023-04-24T02:50:06;0.60;;;0.30;;
79464;SDS011;68932;47.410;8.232;2023-04-24T02:52:34;0.80;;;0.80;;
79464;SDS011;68932;47.410;8.232;2023-04-24T02:55:02;0.60;;;0.50;;
79464;SDS011;68932;47.410;8.232;2023-04-24T02:57:30;1.00;;;0.80;;
79464;SDS011;68932;47.410;8.232;2023-04-24T02:59:57;0.60;;;0.60;;
79464;SDS011;68932;47.410;8.232;2023-04-24T03:02:24;1.10;;;1.00;;
79464;SDS011;68932;47.410;8.232;2023-04-24T03:04:51;0.70;;;0.40;;
79464;SDS011;68932;47.410;8.232;2023-04-24T03:07:18;0.70;;;0.70;;
79464;SDS011;68932;47.410;8.232;2023-04-24T03:09:45;0.60;;;0.40;;
79464;SDS011;68932;47.410;8.232;2023-04-24T03:12:12;0.60;;;0.40;;
79464;SDS011;68932;47.410;8.232;2023-04-24T03:14:39;0.70;;;0.30;;
79464;SDS011;68932;47.410;8.232;2023-04-24T03:17:06;0.90;;;0.40;;
79464;SDS011;68932;47.410;8.232;2023-04-24T03:19:33;0.90;;;0.40;;
79464;SDS011;68932;47.410;8.232;2023-04-24T03:22:00;0.70;;;0.50;;
79464;SDS011;68932;47.410;8.232;2023-04-24T03:24:28;1.10;;;0.90;;
79464;SDS011;68932;47.410;8.232;2023-04-24T03:26:55;0.70;;;0.60;;
79464;SDS011;68932;47.410;8.232;2023-04-24T03:29:22;0.80;;;0.50;;
79464;SDS011;68932;47.410;8.232;2023-04-24T03:31:49;1.50;;;0.90;;
79464;SDS011;68932;47.410;8.232;2023-04-24T03:34:16;0.90;;;0.60;;
79464;SDS011;68932;47.410;8.232;2023-04-24T03:36:43;1.00;;;0.80;;
79464;SDS011;68932;47.410;8.232;2023-04-24T03:39:10;1.40;;;0.40;;
79464;SDS011;68932;47.410;8.232;2023-04-24T03:41:37;1.40;;;0.50;;
79464;SDS011;68932;47.410;8.232;2023-04-24T03:44:04;1.10;;;1.00;;
79464;SDS011;68932;47.410;8.232;2023-04-24T03:46:31;1.40;;;1.00;;
79464;SDS011;68932;47.410;8.232;2023-04-24T03:48:58;0.70;;;0.50;;
79464;SDS011;68932;47.410;8.232;2023-04-24T03:51:25;0.50;;;0.40;;
79464;SDS011;68932;47.410;8.232;2023-04-24T03:53:52;0.90;;;0.70;;
79464;SDS011;68932;47.410;8.232;2023-04-24T03:56:19;0.70;;;0.50;;
79464;SDS011;68932;47.410;8.232;2023-04-24T03:58:46;0.60;;;0.50;;
79464;SDS011;68932;47.410;8.232;2023-04-24T04:01:12;0.90;;;0.90;;
79464;SDS011;68932;47.410;8.232;2023-04-24T04:03:39;0.90;;;0.80;;
79464;SDS011;68932;47.410;8.232;2023-04-24T04:06:06;0.80;;;0.50;;
79464;SDS011;68932;47.410;8.232;2023-04-24T04:08:33;1.00;;;0.70;;
79464;SDS011;68932;47.410;8.232;2023-04-24T04:11:00;1.70;;;0.70;;
79464;SDS011;68932;47.410;8.232;2023-04-24T04:13:27;1.20;;;1.00;;
79464;SDS011;68932;47.410;8.232;2023-04-24T04:15:54;0.90;;;0.70;;
79464;SDS011;68932;47.410;8.232;2023-04-24T04:18:21;0.70;;;0.50;;
79464;SDS011;68932;47.410;8.232;2023-04-24T04:20:48;0.80;;;0.50;;
79464;SDS011;68932;47.410;8.232;2023-04-24T04:23:15;1.10;;;0.90;;
79464;SDS011;68932;47.410;8.232;2023-04-24T04:25:42;1.50;;;0.70;;
79464;SDS011;68932;47.410;8.232;2023-04-24T04:28:09;1.60;;;0.80;;
79464;SDS011;68932;47.410;8.232;2023-04-24T04:30:36;2.00;;;0.70;;
79464;SDS011;68932;47.410;8.232;2023-04-24T04:33:03;1.90;;;0.60;;
79464;SDS011;68932;47.410;8.232;2023-04-24T04:35:30;1.40;;;0.70;;
79464;SDS011;68932;47.410;8.232;2023-04-24T04:37:57;1.50;;;0.70;;
79464;SDS011;68932;47.410;8.232;2023-04-24T04:40:24;1.10;;;0.70;;
79464;SDS011;68932;47.410;8.232;2023-04-24T04:42:51;1.80;;;0.80;;
79464;SDS011;68932;47.410;8.232;2023-04-24T04:45:18;2.50;;;1.70;;
79464;SDS011;68932;47.410;8.232;2023-04-24T04:47:45;2.00;;;0.70;;
79464;SDS011;68932;47.410;8.232;2023-04-24T04:50:12;1.70;;;1.00;;
79464;SDS011;68932;47.410;8.232;2023-04-24T04:52:39;1.30;;;0.90;;
79464;SDS011;68932;47.410;8.232;2023-04-24T04:55:07;1.40;;;1.10;;
79464;SDS011;68932;47.410;8.232;2023-04-24T04:57:34;1.00;;;0.60;;
79464;SDS011;68932;47.410;8.232;2023-04-24T05:00:02;1.90;;;0.70;;
79464;SDS011;68932;47.410;8.232;2023-04-24T05:02:29;0.90;;;0.80;;
79464;SDS011;68932;47.410;8.232;2023-04-24T05:04:56;0.80;;;0.60;;
79464;SDS011;68932;47.410;8.232;2023-04-24T05:07:23;1.40;;;0.60;;
79464;SDS011;68932;47.410;8.232;2023-04-24T05:09:50;1.60;;;0.60;;
79464;SDS011;68932;47.410;8.232;2023-04-24T05:12:17;0.80;;;0.50;;
79464;SDS011;68932;47.410;8.232;2023-04-24T05:14:44;1.50;;;1.10;;
79464;SDS011;68932;47.410;8.232;2023-04-24T05:17:11;0.90;;;0.80;;
79464;SDS011;68932;47.410;8.232;2023-04-24T05:19:38;1.10;;;0.90;;
79464;SDS011;68932;47.410;8.232;2023-04-24T05:22:05;1.20;;;0.70;;
79464;SDS011;68932;47.410;8.232;2023-04-24T05:24:33;1.10;;;0.80;;
79464;SDS011;68932;47.410;8.232;2023-04-24T05:26:59;1.00;;;0.60;;
79464;SDS011;68932;47.410;8.232;2023-04-24T05:29:26;2.50;;;2.00;;
79464;SDS011;68932;47.410;8.232;2023-04-24T05:31:53;2.10;;;1.10;;
79464;SDS011;68932;47.410;8.232;2023-04-24T05:34:20;1.00;;;0.90;;
79464;SDS011;68932;47.410;8.232;2023-04-24T05:36:48;2.00;;;0.70;;
79464;SDS011;68932;47.410;8.232;2023-04-24T05:39:15;1.50;;;1.40;;
79464;SDS011;68932;47.410;8.232;2023-04-24T05:41:43;1.00;;;0.90;;
79464;SDS011;68932;47.410;8.232;2023-04-24T05:44:10;1.60;;;0.80;;
79464;SDS011;68932;47.410;8.232;2023-04-24T05:46:37;1.00;;;0.60;;
79464;SDS011;68932;47.410;8.232;2023-04-24T05:49:04;1.20;;;0.70;;
79464;SDS011;68932;47.410;8.232;2023-04-24T05:51:30;0.80;;;0.70;;
79464;SDS011;68932;47.410;8.232;2023-04-24T05:53:57;1.20;;;0.70;;
79464;SDS011;68932;47.410;8.232;2023-04-24T05:56:24;1.30;;;0.80;;
79464;SDS011;68932;47.410;8.232;2023-04-24T05:58:51;1.50;;;0.80;;
79464;SDS011;68932;47.410;8.232;2023-04-24T06:01:18;1.00;;;0.90;;
79464;SDS011;68932;47.410;8.232;2023-04-24T06:03:45;1.10;;;0.90;;
79464;SDS011;68932;47.410;8.232;2023-04-24T06:06:12;1.40;;;0.90;;
79464;SDS011;68932;47.410;8.232;2023-04-24T06:08:40;1.20;;;1.10;;
79464;SDS011;68932;47.410;8.232;2023-04-24T06:11:07;2.10;;;1.30;;
79464;SDS011;68932;47.410;8.232;2023-04-24T06:13:34;2.20;;;0.80;;
79464;SDS011;68932;47.410;8.232;2023-04-24T06:16:01;2.10;;;1.80;;
79464;SDS011;68932;47.410;8.232;2023-04-24T06:18:28;1.50;;;0.80;;
79464;SDS011;68932;47.410;8.232;2023-04-24T06:20:55;2.50;;;1.20;;
79464;SDS011;68932;47.410;8.232;2023-04-24T06:23:22;1.40;;;1.10;;
79464;SDS011;68932;47.410;8.232;2023-04-24T06:25:49;1.60;;;1.30;;
79464;SDS011;68932;47.410;8.232;2023-04-24T06:28:16;2.50;;;1.10;;
79464;SDS011;68932;47.410;8.232;2023-04-24T06:30:43;1.50;;;1.20;;
79464;SDS011;68932;47.410;8.232;2023-04-24T06:33:10;2.60;;;1.30;;
79464;SDS011;68932;47.410;8.232;2023-04-24T06:35:37;4.00;;;1.60;;
79464;SDS011;68932;47.410;8.232;2023-04-24T06:38:04;4.10;;;1.80;;
79464;SDS011;68932;47.410;8.232;2023-04-24T06:40:32;4.90;;;1.80;;
79464;SDS011;68932;47.410;8.232;2023-04-24T06:42:59;2.30;;;1.40;;
79464;SDS011;68932;47.410;8.232;2023-04-24T06:45:26;2.60;;;1.60;;
79464;SDS011;68932;47.410;8.232;2023-04-24T06:47:53;2.20;;;1.70;;
79464;SDS011;68932;47.410;8.232;2023-04-24T06:50:20;3.10;;;1.50;;
79464;SDS011;68932;47.410;8.232;2023-04-24T06:52:47;2.80;;;1.40;;
79464;SDS011;68932;47.410;8.232;2023-04-24T06:55:14;1.90;;;0.90;;
79464;SDS011;68932;47.410;8.232;2023-04-24T06:57:42;2.30;;;1.50;;
79464;SDS011;68932;47.410;8.232;2023-04-24T07:00:10;3.30;;;2.80;;
79464;SDS011;68932;47.410;8.232;2023-04-24T07:02:39;6.30;;;1.80;;
79464;SDS011;68932;47.410;8.232;2023-04-24T07:05:06;3.40;;;1.70;;
79464;SDS011;68932;47.410;8.232;2023-04-24T07:07:34;3.40;;;2.40;;
79464;SDS011;68932;47.410;8.232;2023-04-24T07:10:01;2.80;;;2.00;;
79464;SDS011;68932;47.410;8.232;2023-04-24T07:12:28;2.10;;;1.20;;
79464;SDS011;68932;47.410;8.232;2023-04-24T07:14:55;3.40;;;2.50;;
79464;SDS011;68932;47.410;8.232;2023-04-24T07:17:22;2.90;;;1.50;;
79464;SDS011;68932;47.410;8.232;2023-04-24T07:19:49;1.70;;;1.30;;
79464;SDS011;68932;47.410;8.232;2023-04-24T07:22:16;2.50;;;1.60;;
79464;SDS011;68932;47.410;8.232;2023-04-24T07:24:43;3.00;;;1.40;;
79464;SDS011;68932;47.410;8.232;2023-04-24T07:27:10;1.60;;;1.30;;
79464;SDS011;68932;47.410;8.232;2023-04-24T07:29:37;1.50;;;1.00;;
79464;SDS011;68932;47.410;8.232;2023-04-24T07:32:04;2.00;;;1.80;;
79464;SDS011;68932;47.410;8.232;2023-04-24T07:34:31;2.30;;;1.80;;
79464;SDS011;68932;47.410;8.232;2023-04-24T07:36:59;1.60;;;1.50;;
79464;SDS011;68932;47.410;8.232;2023-04-24T07:39:26;2.50;;;1.00;;
79464;SDS011;68932;47.410;8.232;2023-04-24T07:41:53;1.60;;;1.30;;
79464;SDS011;68932;47.410;8.232;2023-04-24T07:44:20;2.20;;;1.20;;
79464;SDS011;68932;47.410;8.232;2023-04-24T07:46:47;1.90;;;0.90;;
79464;SDS011;68932;47.410;8.232;2023-04-24T07:49:14;2.70;;;1.20;;
79464;SDS011;68932;47.410;8.232;2023-04-24T07:51:41;1.60;;;0.80;;
79464;SDS011;68932;47.410;8.232;2023-04-24T07:54:08;1.80;;;1.10;;
79464;SDS011;68932;47.410;8.232;2023-04-24T07:56:35;3.60;;;1.70;;
79464;SDS011;68932;47.410;8.232;2023-04-24T07:59:02;2.80;;;1.30;;
79464;SDS011;68932;47.410;8.232;2023-04-24T08:01:30;1.30;;;1.00;;
79464;SDS011;68932;47.410;8.232;2023-04-24T08:03:57;1.00;;;0.80;;
79464;SDS011;68932;47.410;8.232;2023-04-24T08:06:23;2.90;;;1.30;;
79464;SDS011;68932;47.410;8.232;2023-04-24T08:08:50;3.20;;;1.90;;
79464;SDS011;68932;47.410;8.232;2023-04-24T08:11:17;2.80;;;1.40;;
79464;SDS011;68932;47.410;8.232;2023-04-24T08:13:44;5.40;;;1.70;;
79464;SDS011;68932;47.410;8.232;2023-04-24T08:16:11;1.90;;;1.60;;
79464;SDS011;68932;47.410;8.232;2023-04-24T08:18:39;2.10;;;1.00;;
79464;SDS011;68932;47.410;8.232;2023-04-24T08:21:06;2.50;;;1.10;;
79464;SDS011;68932;47.410;8.232;2023-04-24T08:23:33;3.60;;;1.90;;
79464;SDS011;68932;47.410;8.232;2023-04-24T08:26:00;3.00;;;1.60;;
79464;SDS011;68932;47.410;8.232;2023-04-24T08:28:27;3.90;;;2.10;;
79464;SDS011;68932;47.410;8.232;2023-04-24T08:30:54;3.10;;;1.70;;
79464;SDS011;68932;47.410;8.232;2023-04-24T08:33:21;3.20;;;2.00;;
79464;SDS011;68932;47.410;8.232;2023-04-24T08:35:48;2.80;;;1.70;;
79464;SDS011;68932;47.410;8.232;2023-04-24T08:38:15;2.80;;;1.50;;
79464;SDS011;68932;47.410;8.232;2023-04-24T08:40:42;1.90;;;1.30;;
79464;SDS011;68932;47.410;8.232;2023-04-24T08:43:09;2.30;;;1.20;;
79464;SDS011;68932;47.410;8.232;2023-04-24T08:45:37;1.40;;;1.20;;
79464;SDS011;68932;47.410;8.232;2023-04-24T08:48:05;2.10;;;1.40;;
79464;SDS011;68932;47.410;8.232;2023-04-24T08:50:33;2.20;;;1.60;;
79464;SDS011;68932;47.410;8.232;2023-04-24T08:53:01;1.90;;;1.40;;
79464;SDS011;68932;47.410;8.232;2023-04-24T08:55:29;2.10;;;1.50;;
79464;SDS011;68932;47.410;8.232;2023-04-24T08:57:58;2.50;;;1.50;;
79464;SDS011;68932;47.410;8.232;2023-04-24T09:00:26;2.10;;;1.10;;
79464;SDS011;68932;47.410;8.232;2023-04-24T09:02:54;2.60;;;1.10;;
79464;SDS011;68932;47.410;8.232;2023-04-24T09:05:22;3.10;;;2.20;;
79464;SDS011;68932;47.410;8.232;2023-04-24T09:07:52;3.90;;;1.90;;
79464;SDS011;68932;47.410;8.232;2023-04-24T09:10:20;2.60;;;1.60;;
79464;SDS011;68932;47.410;8.232;2023-04-24T09:12:49;3.90;;;2.10;;
79464;SDS011;68932;47.410;8.232;2023-04-24T09:15:17;3.50;;;1.80;;
79464;SDS011;68932;47.410;8.232;2023-04-24T09:17:45;1.90;;;1.20;;
79464;SDS011;68932;47.410;8.232;2023-04-24T09:20:12;2.60;;;1.50;;
79464;SDS011;68932;47.410;8.232;2023-04-24T09:22:39;3.20;;;1.80;;
79464;SDS011;68932;47.410;8.232;2023-04-24T09:25:08;3.10;;;2.00;;
79464;SDS011;68932;47.410;8.232;2023-04-24T09:27:35;5.00;;;3.30;;
79464;SDS011;68932;47.410;8.232;2023-04-24T09:30:07;2.10;;;1.80;;
79464;SDS011;68932;47.410;8.232;2023-04-24T09:32:35;2.90;;;1.20;;
79464;SDS011;68932;47.410;8.232;2023-04-24T09:35:07;3.70;;;1.70;;
79464;SDS011;68932;47.410;8.232;2023-04-24T09:37:36;2.10;;;1.60;;
79464;SDS011;68932;47.410;8.232;2023-04-24T09:40:14;3.20;;;1.80;;
79464;SDS011;68932;47.410;8.232;2023-04-24T09:45:11;1.80;;;0.90;;
79464;SDS011;68932;47.410;8.232;2023-04-24T09:47:39;2.70;;;1.30;;
79464;SDS011;68932;47.410;8.232;2023-04-24T09:50:10;1.40;;;1.20;;
79464;SDS011;68932;47.410;8.232;2023-04-24T09:52:43;1.60;;;1.50;;
79464;SDS011;68932;47.410;8.232;2023-04-24T09:55:12;3.40;;;2.60;;
79464;SDS011;68932;47.410;8.232;2023-04-24T09:57:52;3.00;;;1.70;;
79464;SDS011;68932;47.410;8.232;2023-04-24T10:00:23;2.70;;;1.50;;
79464;SDS011;68932;47.410;8.232;2023-04-24T10:02:55;2.30;;;1.40;;
79464;SDS011;68932;47.410;8.232;2023-04-24T10:05:24;3.40;;;1.30;;
79464;SDS011;68932;47.410;8.232;2023-04-24T10:07:56;3.00;;;1.40;;
79464;SDS011;68932;47.410;8.232;2023-04-24T10:10:26;2.80;;;1.70;;
79464;SDS011;68932;47.410;8.232;2023-04-24T10:12:53;3.40;;;1.60;;
79464;SDS011;68932;47.410;8.232;2023-04-24T10:15:21;3.70;;;1.60;;
79464;SDS011;68932;47.410;8.232;2023-04-24T10:17:49;2.70;;;1.80;;
79464;SDS011;68932;47.410;8.232;2023-04-24T10:20:17;2.20;;;1.40;;
79464;SDS011;68932;47.410;8.232;2023-04-24T10:22:46;2.90;;;1.70;;
79464;SDS011;68932;47.410;8.232;2023-04-24T10:25:15;3.50;;;2.00;;
79464;SDS011;68932;47.410;8.232;2023-04-24T10:27:44;2.30;;;1.40;;
79464;SDS011;68932;47.410;8.232;2023-04-24T10:30:13;1.80;;;0.90;;
79464;SDS011;68932;47.410;8.232;2023-04-24T10:32:41;3.20;;;1.50;;
79464;SDS011;68932;47.410;8.232;2023-04-24T10:35:09;2.30;;;1.30;;
79464;SDS011;68932;47.410;8.232;2023-04-24T10:37:39;2.30;;;2.00;;
79464;SDS011;68932;47.410;8.232;2023-04-24T10:40:10;3.20;;;1.60;;
79464;SDS011;68932;47.410;8.232;2023-04-24T10:42:42;2.70;;;1.30;;
79464;SDS011;68932;47.410;8.232;2023-04-24T10:45:17;1.60;;;1.10;;
79464;SDS011;68932;47.410;8.232;2023-04-24T10:47:51;2.00;;;1.70;;
79464;SDS011;68932;47.410;8.232;2023-04-24T10:50:19;3.80;;;2.10;;
79464;SDS011;68932;47.410;8.232;2023-04-24T10:52:46;4.60;;;1.70;;
79464;SDS011;68932;47.410;8.232;2023-04-24T10:55:14;3.00;;;1.30;;
79464;SDS011;68932;47.410;8.232;2023-04-24T10:58:00;1.60;;;1.00;;
79464;SDS011;68932;47.410;8.232;2023-04-24T11:00:28;3.50;;;1.50;;
79464;SDS011;68932;47.410;8.232;2023-04-24T11:02:56;1.50;;;1.10;;
79464;SDS011;68932;47.410;8.232;2023-04-24T11:05:48;2.30;;;1.00;;
79464;SDS011;68932;47.410;8.232;2023-04-24T11:08:22;1.90;;;1.60;;
79464;SDS011;68932;47.410;8.232;2023-04-24T11:10:55;2.10;;;1.30;;
79464;SDS011;68932;47.410;8.232;2023-04-24T11:16:28;2.80;;;1.30;;
79464;SDS011;68932;47.410;8.232;2023-04-24T11:19:00;2.60;;;1.60;;
79464;SDS011;68932;47.410;8.232;2023-04-24T11:21:31;1.70;;;1.20;;
79464;SDS011;68932;47.410;8.232;2023-04-24T11:26:51;1.20;;;0.90;;
79464;SDS011;68932;47.410;8.232;2023-04-24T11:29:20;2.10;;;1.40;;
79464;SDS011;68932;47.410;8.232;2023-04-24T11:31:47;3.10;;;1.80;;
79464;SDS011;68932;47.410;8.232;2023-04-24T11:34:14;2.40;;;1.60;;
79464;SDS011;68932;47.410;8.232;2023-04-24T11:36:43;3.20;;;1.80;;
79464;SDS011;68932;47.410;8.232;2023-04-24T11:39:11;1.80;;;1.10;;
79464;SDS011;68932;47.410;8.232;2023-04-24T11:41:38;1.60;;;1.50;;
79464;SDS011;68932;47.410;8.232;2023-04-24T11:44:06;2.20;;;1.50;;
79464;SDS011;68932;47.410;8.232;2023-04-24T11:46:34;2.20;;;1.60;;
79464;SDS011;68932;47.410;8.232;2023-04-24T11:49:01;4.40;;;1.60;;
79464;SDS011;68932;47.410;8.232;2023-04-24T11:51:28;2.70;;;1.80;;
79464;SDS011;68932;47.410;8.232;2023-04-24T11:53:55;3.80;;;1.90;;
79464;SDS011;68932;47.410;8.232;2023-04-24T11:56:23;3.10;;;2.50;;
79464;SDS011;68932;47.410;8.232;2023-04-24T11:58:52;3.00;;;1.50;;
79464;SDS011;68932;47.410;8.232;2023-04-24T12:01:19;2.20;;;1.10;;
79464;SDS011;68932;47.410;8.232;2023-04-24T12:03:48;1.50;;;1.20;;
79464;SDS011;68932;47.410;8.232;2023-04-24T12:06:16;2.50;;;1.60;;
79464;SDS011;68932;47.410;8.232;2023-04-24T12:08:46;1.80;;;1.40;;
79464;SDS011;68932;47.410;8.232;2023-04-24T12:11:14;1.30;;;1.00;;
79464;SDS011;68932;47.410;8.232;2023-04-24T12:13:43;2.50;;;1.40;;
79464;SDS011;68932;47.410;8.232;2023-04-24T12:16:10;3.40;;;2.10;;
79464;SDS011;68932;47.410;8.232;2023-04-24T12:18:42;1.20;;;0.90;;
79464;SDS011;68932;47.410;8.232;2023-04-24T12:21:16;2.80;;;2.00;;
79464;SDS011;68932;47.410;8.232;2023-04-24T12:23:45;1.00;;;0.80;;
79464;SDS011;68932;47.410;8.232;2023-04-24T12:26:14;1.70;;;1.00;;
79464;SDS011;68932;47.410;8.232;2023-04-24T12:28:45;1.40;;;1.00;;
79464;SDS011;68932;47.410;8.232;2023-04-24T12:31:13;2.10;;;1.20;;
79464;SDS011;68932;47.410;8.232;2023-04-24T12:33:41;2.30;;;1.50;;
79464;SDS011;68932;47.410;8.232;2023-04-24T12:36:08;1.60;;;0.90;;
79464;SDS011;68932;47.410;8.232;2023-04-24T12:38:36;1.50;;;1.10;;
79464;SDS011;68932;47.410;8.232;2023-04-24T12:41:05;1.70;;;0.90;;
79464;SDS011;68932;47.410;8.232;2023-04-24T12:43:33;2.70;;;1.50;;
79464;SDS011;68932;47.410;8.232;2023-04-24T12:46:01;1.50;;;1.00;;
79464;SDS011;68932;47.410;8.232;2023-04-24T12:48:28;2.50;;;1.90;;
79464;SDS011;68932;47.410;8.232;2023-04-24T12:50:55;1.50;;;1.20;;
79464;SDS011;68932;47.410;8.232;2023-04-24T12:53:23;2.50;;;1.20;;
79464;SDS011;68932;47.410;8.232;2023-04-24T12:55:51;2.20;;;1.20;;
79464;SDS011;68932;47.410;8.232;2023-04-24T12:58:18;2.40;;;1.20;;
79464;SDS011;68932;47.410;8.232;2023-04-24T13:00:46;2.40;;;1.40;;
79464;SDS011;68932;47.410;8.232;2023-04-24T13:03:13;2.90;;;1.80;;
79464;SDS011;68932;47.410;8.232;2023-04-24T13:05:41;4.00;;;1.70;;
79464;SDS011;68932;47.410;8.232;2023-04-24T13:08:08;2.90;;;2.10;;
79464;SDS011;68932;47.410;8.232;2023-04-24T13:10:35;3.70;;;1.60;;
79464;SDS011;68932;47.410;8.232;2023-04-24T13:13:03;2.30;;;1.70;;
79464;SDS011;68932;47.410;8.232;2023-04-24T13:15:30;1.40;;;1.20;;
79464;SDS011;68932;47.410;8.232;2023-04-24T13:17:57;2.80;;;1.80;;
79464;SDS011;68932;47.410;8.232;2023-04-24T13:20:24;4.50;;;2.30;;
79464;SDS011;68932;47.410;8.232;2023-04-24T13:22:51;2.00;;;1.10;;
79464;SDS011;68932;47.410;8.232;2023-04-24T13:25:18;3.10;;;1.30;;
79464;SDS011;68932;47.410;8.232;2023-04-24T13:27:45;1.70;;;1.40;;
79464;SDS011;68932;47.410;8.232;2023-04-24T13:30:13;2.50;;;1.70;;
79464;SDS011;68932;47.410;8.232;2023-04-24T13:32:40;1.90;;;1.50;;
79464;SDS011;68932;47.410;8.232;2023-04-24T13:35:08;1.30;;;1.00;;
79464;SDS011;68932;47.410;8.232;2023-04-24T13:37:35;2.30;;;1.20;;
79464;SDS011;68932;47.410;8.232;2023-04-24T13:40:03;2.50;;;1.00;;
79464;SDS011;68932;47.410;8.232;2023-04-24T13:42:31;2.20;;;1.20;;
79464;SDS011;68932;47.410;8.232;2023-04-24T13:44:58;3.60;;;2.10;;
79464;SDS011;68932;47.410;8.232;2023-04-24T13:47:25;2.80;;;1.80;;
79464;SDS011;68932;47.410;8.232;2023-04-24T13:49:52;2.00;;;1.20;;
79464;SDS011;68932;47.410;8.232;2023-04-24T13:52:19;2.70;;;1.80;;
79464;SDS011;68932;47.410;8.232;2023-04-24T13:54:46;1.80;;;1.00;;
79464;SDS011;68932;47.410;8.232;2023-04-24T13:57:13;3.50;;;2.00;;
79464;SDS011;68932;47.410;8.232;2023-04-24T13:59:41;3.40;;;1.50;;
79464;SDS011;68932;47.410;8.232;2023-04-24T14:02:07;2.60;;;1.50;;
79464;SDS011;68932;47.410;8.232;2023-04-24T14:04:34;3.00;;;1.60;;
79464;SDS011;68932;47.410;8.232;2023-04-24T14:07:01;2.80;;;1.80;;
79464;SDS011;68932;47.410;8.232;2023-04-24T14:09:28;3.40;;;1.90;;
79464;SDS011;68932;47.410;8.232;2023-04-24T14:11:56;4.00;;;1.90;;
79464;SDS011;68932;47.410;8.232;2023-04-24T14:14:23;3.30;;;1.70;;
79464;SDS011;68932;47.410;8.232;2023-04-24T14:16:50;2.40;;;1.50;;
79464;SDS011;68932;47.410;8.232;2023-04-24T14:19:17;2.30;;;1.70;;
79464;SDS011;68932;47.410;8.232;2023-04-24T14:21:44;2.40;;;1.90;;
79464;SDS011;68932;47.410;8.232;2023-04-24T14:24:11;2.10;;;2.00;;
79464;SDS011;68932;47.410;8.232;2023-04-24T14:26:38;1.30;;;1.10;;
79464;SDS011;68932;47.410;8.232;2023-04-24T14:29:05;1.30;;;1.10;;
79464;SDS011;68932;47.410;8.232;2023-04-24T14:31:32;4.20;;;1.30;;
79464;SDS011;68932;47.410;8.232;2023-04-24T14:33:59;2.30;;;1.70;;
79464;SDS011;68932;47.410;8.232;2023-04-24T14:36:26;2.10;;;1.10;;
79464;SDS011;68932;47.410;8.232;2023-04-24T14:38:53;2.00;;;1.20;;
79464;SDS011;68932;47.410;8.232;2023-04-24T14:41:21;2.50;;;1.40;;
79464;SDS011;68932;47.410;8.232;2023-04-24T14:43:48;1.80;;;0.90;;
79464;SDS011;68932;47.410;8.232;2023-04-24T14:46:15;1.70;;;1.20;;
79464;SDS011;68932;47.410;8.232;2023-04-24T14:48:42;1.90;;;1.30;;
79464;SDS011;68932;47.410;8.232;2023-04-24T14:51:09;1.40;;;1.10;;
79464;SDS011;68932;47.410;8.232;2023-04-24T14:53:36;1.90;;;1.40;;
79464;SDS011;68932;47.410;8.232;2023-04-24T14:56:03;2.00;;;1.20;;
79464;SDS011;68932;47.410;8.232;2023-04-24T14:58:30;1.70;;;1.20;;